createdAt,value
2022-10-05T00:01:46.701Z,8.26
2022-10-05T00:06:57.557Z,8.14
2022-10-05T00:12:13.123Z,8.00
2022-10-05T00:17:17.891Z,7.82
2022-10-05T00:22:22.074Z,7.82
2022-10-05T00:27:27.381Z,7.82
2022-10-05T00:32:29.414Z,7.72
2022-10-05T00:37:31.076Z,7.63
2022-10-05T00:42:44.920Z,7.63
2022-10-05T00:47:57.717Z,7.53
2022-10-05T00:53:10.477Z,7.39
2022-10-05T00:58:26.476Z,7.35
2022-10-05T01:03:37.615Z,7.38
2022-10-05T01:08:46.605Z,7.42
2022-10-05T01:13:59.720Z,7.44
2022-10-05T01:19:11.849Z,7.36
2022-10-05T01:24:40.229Z,7.45
2022-10-05T01:29:49.725Z,7.60
2022-10-05T01:34:59.869Z,7.69
2022-10-05T01:40:07.887Z,7.69
2022-10-05T01:45:18.789Z,7.55
2022-10-05T01:50:32.782Z,7.46
2022-10-05T01:55:42.336Z,7.35
2022-10-05T02:00:55.867Z,7.23
2022-10-05T02:06:00.683Z,7.11
2022-10-05T02:11:07.432Z,7.03
2022-10-05T02:16:16.424Z,6.96
2022-10-05T02:21:20.249Z,6.92
2022-10-05T02:26:24.301Z,6.78
2022-10-05T02:31:35.314Z,6.65
2022-10-05T02:36:38.136Z,6.59
2022-10-05T02:41:49.098Z,6.49
2022-10-05T02:46:59.934Z,6.52
2022-10-05T02:52:08.858Z,6.51
2022-10-05T02:57:16.509Z,6.43
2022-10-05T03:02:25.049Z,6.41
2022-10-05T03:07:33.895Z,6.38
2022-10-05T03:12:44.539Z,6.43
2022-10-05T03:17:52.294Z,6.43
2022-10-05T03:22:58.190Z,6.41
2022-10-05T03:28:07.527Z,6.50
2022-10-05T03:33:21.245Z,6.60
2022-10-05T03:38:34.364Z,6.60
2022-10-05T03:44:02.119Z,6.70
2022-10-05T03:49:14.464Z,6.78
2022-10-05T03:54:22.980Z,6.95
2022-10-05T03:59:32.644Z,7.14
2022-10-05T04:04:51.298Z,7.26
2022-10-05T04:09:56.299Z,7.50
2022-10-05T04:15:03.178Z,7.74
2022-10-05T04:20:18.209Z,7.86
2022-10-05T04:25:25.203Z,7.92
2022-10-05T04:30:26.962Z,7.95
2022-10-05T04:35:41.472Z,7.95
2022-10-05T04:40:58.707Z,7.98
2022-10-05T04:46:13.856Z,8.11
2022-10-05T04:51:35.792Z,8.13
2022-10-05T04:56:42.250Z,8.20
2022-10-05T05:02:03.701Z,8.17
2022-10-05T05:07:19.255Z,8.17
2022-10-05T05:12:35.171Z,8.14
2022-10-05T05:17:56.856Z,8.27
2022-10-05T05:23:09.033Z,8.34
2022-10-05T05:28:19.433Z,8.30
2022-10-05T05:33:23.182Z,8.41
2022-10-05T05:38:32.891Z,8.46
2022-10-05T05:43:58.827Z,8.56
2022-10-05T05:49:07.484Z,8.73
2022-10-05T05:54:29.972Z,8.88
2022-10-05T05:59:43.182Z,8.98
2022-10-05T06:04:49.780Z,9.12
2022-10-05T06:09:58.388Z,9.24
2022-10-05T06:15:05.358Z,9.41
2022-10-05T06:20:16.574Z,9.57
2022-10-05T06:25:31.047Z,9.78
2022-10-05T06:30:46.133Z,10.02
2022-10-05T06:36:04.504Z,10.25
2022-10-05T06:41:16.191Z,10.39
2022-10-05T06:46:23.562Z,10.54
2022-10-05T06:51:35.106Z,10.75
2022-10-05T06:56:45.512Z,10.75
2022-10-05T07:01:59.291Z,10.93
2022-10-05T07:07:07.452Z,11.07
2022-10-05T07:12:33.399Z,11.32
2022-10-05T07:17:49.463Z,11.64
2022-10-05T07:23:10.026Z,11.66
2022-10-05T07:28:19.456Z,11.77
2022-10-05T07:33:27.165Z,11.81
2022-10-05T07:38:35.501Z,12.08
2022-10-05T07:44:02.445Z,12.35
2022-10-05T07:49:13.302Z,12.74
2022-10-05T07:54:21.660Z,13.21
2022-10-05T07:59:34.692Z,13.40
2022-10-05T08:04:45.064Z,13.67
2022-10-05T08:09:54.326Z,13.59
2022-10-05T08:15:00.727Z,13.75
2022-10-05T08:20:16.058Z,13.83
2022-10-05T08:25:24.806Z,14.36
2022-10-05T08:30:30.738Z,14.66
2022-10-05T08:35:38.186Z,14.94
2022-10-05T08:41:11.744Z,15.20
2022-10-05T08:46:29.511Z,15.65
2022-10-05T08:51:57.162Z,16.06
2022-10-05T08:57:32.073Z,16.25
2022-10-05T09:02:57.593Z,16.47
2022-10-05T09:08:30.418Z,16.23
2022-10-05T09:13:49.735Z,15.98
2022-10-05T09:19:12.144Z,16.40
2022-10-05T09:24:27.421Z,16.30
2022-10-05T09:30:06.065Z,16.88
2022-10-05T09:35:27.454Z,16.62
2022-10-05T09:41:00.548Z,16.75
2022-10-05T09:46:28.338Z,19.98
2022-10-05T09:52:02.381Z,21.43
2022-10-05T09:57:42.413Z,24.66
2022-10-05T10:03:07.246Z,21.52
2022-10-05T10:08:25.442Z,18.42
2022-10-05T10:14:08.854Z,17.80
2022-10-05T10:19:30.744Z,18.12
2022-10-05T10:24:50.971Z,17.67
2022-10-05T10:30:14.185Z,17.66
2022-10-05T10:41:04.259Z,18.49
2022-10-05T10:46:19.029Z,19.87
2022-10-05T10:51:46.806Z,21.17
2022-10-05T10:56:56.102Z,22.68
2022-10-05T11:02:25.162Z,23.99
2022-10-05T11:07:49.965Z,21.02
2022-10-05T11:13:24.379Z,21.36
2022-10-05T11:18:40.698Z,21.09
2022-10-05T11:24:08.338Z,21.31
2022-10-05T11:29:47.663Z,20.20
2022-10-05T11:35:20.766Z,20.83
2022-10-05T11:40:47.498Z,21.35
2022-10-05T11:46:04.782Z,20.10
2022-10-05T11:51:30.385Z,19.77
2022-10-05T11:56:37.081Z,19.81
2022-10-05T12:01:49.429Z,19.52
2022-10-05T12:07:06.920Z,19.58
2022-10-05T12:12:17.461Z,20.55
2022-10-05T12:17:29.368Z,20.92
2022-10-05T12:22:37.625Z,21.08
2022-10-05T12:27:42.731Z,21.28
2022-10-05T12:33:00.882Z,21.19
2022-10-05T12:38:07.686Z,21.05
2022-10-05T12:43:20.101Z,20.83
2022-10-05T12:48:40.841Z,21.11
2022-10-05T12:53:51.830Z,20.79
2022-10-05T12:59:01.384Z,20.69
2022-10-05T13:04:17.249Z,20.96
2022-10-05T13:09:28.219Z,21.14
2022-10-05T13:14:48.850Z,21.40
2022-10-05T13:19:57.027Z,21.36
2022-10-05T13:25:09.916Z,21.36
2022-10-05T13:30:15.359Z,20.48
2022-10-05T13:35:37.821Z,20.33
2022-10-05T13:40:46.116Z,20.24
2022-10-05T13:45:55.671Z,20.56
2022-10-05T13:51:07.645Z,20.65
2022-10-05T13:56:20.229Z,20.31
2022-10-05T14:01:31.769Z,20.23
2022-10-05T14:06:37.124Z,20.51
2022-10-05T14:11:48.356Z,20.55
2022-10-05T14:16:53.171Z,20.55
2022-10-05T14:22:01.638Z,20.41
2022-10-05T14:27:20.216Z,20.51
2022-10-05T14:32:24.992Z,20.65
2022-10-05T14:37:44.779Z,20.66
2022-10-05T14:42:47.529Z,20.57
2022-10-05T14:47:51.621Z,20.52
2022-10-05T14:53:17.240Z,20.37
2022-10-05T14:58:31.167Z,20.08
2022-10-05T15:03:45.784Z,20.09
2022-10-05T15:09:12.388Z,19.80
2022-10-05T15:14:22.161Z,19.60
2022-10-05T15:19:28.575Z,19.40
2022-10-05T15:24:43.506Z,19.14
2022-10-05T15:29:58.451Z,19.07
2022-10-05T15:35:24.528Z,18.92
2022-10-05T15:40:36.604Z,18.78
2022-10-05T15:45:43.890Z,18.60
2022-10-05T15:50:53.129Z,18.45
2022-10-05T15:55:59.973Z,18.25
2022-10-05T16:01:07.630Z,18.10
2022-10-05T16:06:19.374Z,17.94
2022-10-05T16:11:53.468Z,17.74
2022-10-05T16:17:11.811Z,17.51
2022-10-05T16:22:21.882Z,17.36
2022-10-05T16:27:35.683Z,17.12
2022-10-05T16:32:43.028Z,16.87
2022-10-05T16:37:55.271Z,16.46
2022-10-05T16:43:08.435Z,15.96
2022-10-05T16:48:16.732Z,15.59
2022-10-05T16:53:24.594Z,15.23
2022-10-05T16:58:38.600Z,14.94
2022-10-05T17:03:58.228Z,14.65
2022-10-05T17:09:26.480Z,14.41
2022-10-05T17:14:42.593Z,14.24
2022-10-05T17:19:57.806Z,14.01
2022-10-05T17:25:11.545Z,13.79
2022-10-05T17:30:47.295Z,13.75
2022-10-05T17:35:53.263Z,13.94
2022-10-05T17:41:03.877Z,14.28
2022-10-05T17:46:09.330Z,14.38
2022-10-05T17:51:17.460Z,14.33
2022-10-05T17:56:20.417Z,14.35
2022-10-05T18:01:31.024Z,14.49
2022-10-05T18:06:35.471Z,14.52
2022-10-05T18:11:41.015Z,14.37
2022-10-05T18:17:02.688Z,14.27
2022-10-05T18:22:27.003Z,14.31
2022-10-05T18:27:51.744Z,14.32
2022-10-05T18:33:33.499Z,14.31
2022-10-05T18:38:47.366Z,14.12
2022-10-05T18:43:59.527Z,14.07
2022-10-05T18:49:15.061Z,14.06
2022-10-05T18:54:39.044Z,13.95
2022-10-05T18:59:48.430Z,14.02
2022-10-05T19:05:03.357Z,13.94
2022-10-05T19:10:17.254Z,13.80
2022-10-05T19:15:26.507Z,13.81
2022-10-05T19:20:35.332Z,13.68
2022-10-05T19:25:42.009Z,13.63
2022-10-05T19:31:00.676Z,13.81
2022-10-05T19:36:16.836Z,14.04
2022-10-05T19:41:26.794Z,14.38
2022-10-05T19:46:41.892Z,14.42
2022-10-05T19:51:50.116Z,14.60
2022-10-05T19:56:53.820Z,14.65
2022-10-05T20:01:57.607Z,14.64
2022-10-05T20:07:00.863Z,14.68
2022-10-05T20:12:02.599Z,14.80
2022-10-05T20:17:26.005Z,14.76
2022-10-05T20:22:32.096Z,14.82
2022-10-05T20:27:44.206Z,14.76
2022-10-05T20:32:48.184Z,14.63
2022-10-05T20:37:51.478Z,14.47
2022-10-05T20:42:53.128Z,14.50
2022-10-05T20:47:55.368Z,14.45
2022-10-05T20:52:58.588Z,14.62
2022-10-05T20:58:00.896Z,14.66
2022-10-05T21:03:02.474Z,14.61
2022-10-05T21:08:05.479Z,14.63
2022-10-05T21:13:07.097Z,14.70
2022-10-05T21:18:09.207Z,14.75
2022-10-05T21:23:12.524Z,14.68
2022-10-05T21:28:14.657Z,14.80
2022-10-05T21:33:16.555Z,14.85
2022-10-05T21:38:19.932Z,14.95
2022-10-05T21:43:22.104Z,15.04
2022-10-05T21:48:26.298Z,14.96
2022-10-05T21:53:33.008Z,14.89
2022-10-05T21:58:35.461Z,14.77
2022-10-05T22:03:37.546Z,14.63
2022-10-05T22:08:41.059Z,14.60
2022-10-05T22:13:44.919Z,14.53
2022-10-05T22:18:47.621Z,14.33
2022-10-05T22:23:51.017Z,14.18
2022-10-05T22:28:53.281Z,14.18
2022-10-05T22:33:55.387Z,14.08
2022-10-05T22:38:58.910Z,13.95
2022-10-05T22:44:00.933Z,14.15
2022-10-05T22:49:03.118Z,14.08
2022-10-05T22:54:06.767Z,14.12
2022-10-05T22:59:09.089Z,14.14
2022-10-05T23:04:11.112Z,14.04
2022-10-05T23:09:14.705Z,14.10
2022-10-05T23:14:16.792Z,14.18
2022-10-05T23:19:18.937Z,14.38
2022-10-05T23:24:22.472Z,14.35
2022-10-05T23:29:24.105Z,14.31
2022-10-05T23:34:26.141Z,14.31
2022-10-05T23:39:29.763Z,14.24
2022-10-05T23:44:31.881Z,14.23
2022-10-05T23:49:34.144Z,14.30
2022-10-05T23:54:37.509Z,14.30
2022-10-05T23:59:39.580Z,14.39
